RYR2116 LGIR-LGTS
Flight info
| Callsign | RYR2116 |
|---|---|
| Flight time | 1h 1m |
| Altitude | 30000 |
| Route | EPALO M749 DIRMI UM749 SIGFO DCT BAMOS UL617 LEKPO |
| Aircraft | B738/M-SDE2E3FGHIRWXY/LB1 |
Departure
| Time | 2026-04-29 22:32 |
|---|---|
| Airport | Heraklion International Nikos Kazantzakis Airport (LGIR) |
Arrival
| Time | 2026-04-29 23:34 |
|---|---|
| Airport | Thessaloniki Macedonia International Airport (LGTS) |
| Time | Latitude | Longitude | Altitude | Speed | Heading |
|---|---|---|---|---|---|
| 2026-04-29 22:19 | 35.33868 | 25.17286 | 99 ft | 0 kts | 311° |
| 2026-04-29 22:29 | 35.33875 | 25.17279 | 98 ft | 5 kts | 322° |
| 2026-04-29 22:29 | 35.33919 | 25.17232 | 92 ft | 11 kts | 303° |
| 2026-04-29 22:29 | 35.33937 | 25.17112 | 90 ft | 16 kts | 274° |
| 2026-04-29 22:30 | 35.33948 | 25.16960 | 86 ft | 18 kts | 274° |
| 2026-04-29 22:30 | 35.33961 | 25.16803 | 84 ft | 19 kts | 280° |
| 2026-04-29 22:30 | 35.34025 | 25.16655 | 80 ft | 20 kts | 305° |
| 2026-04-29 22:30 | 35.34080 | 25.16490 | 78 ft | 20 kts | 275° |
| 2026-04-29 22:31 | 35.34094 | 25.16308 | 77 ft | 21 kts | 275° |
| 2026-04-29 22:31 | 35.34082 | 25.16155 | 78 ft | 10 kts | 275° |
| 2026-04-29 22:31 | 35.34105 | 25.16167 | 77 ft | 7 kts | 96° |
| 2026-04-29 22:31 | 35.34095 | 25.16300 | 77 ft | 39 kts | 95° |
| 2026-04-29 22:32 | 35.34047 | 25.16985 | 81 ft | 119 kts | 95° |
| 2026-04-29 22:32 | 35.33960 | 25.18273 | 148 ft | 176 kts | 97° |
| 2026-04-29 22:32 | 35.33870 | 25.19728 | 1070 ft | 168 kts | 95° |
| 2026-04-29 22:32 | 35.33872 | 25.21194 | 1697 ft | 181 kts | 73° |
| 2026-04-29 22:33 | 35.34605 | 25.22400 | 2173 ft | 182 kts | 29° |
| 2026-04-29 22:33 | 35.35870 | 25.22820 | 2471 ft | 198 kts | 359° |
| 2026-04-29 22:33 | 35.37257 | 25.22345 | 2817 ft | 215 kts | 327° |
| 2026-04-29 22:33 | 35.38286 | 25.21011 | 3424 ft | 220 kts | 300° |
| 2026-04-29 22:34 | 35.38918 | 25.19310 | 4045 ft | 224 kts | 293° |
| 2026-04-29 22:34 | 35.39511 | 25.17545 | 4682 ft | 225 kts | 295° |
| 2026-04-29 22:34 | 35.40201 | 25.15793 | 5280 ft | 228 kts | 304° |
| 2026-04-29 22:34 | 35.41307 | 25.14442 | 5833 ft | 230 kts | 332° |
| 2026-04-29 22:35 | 35.42861 | 25.13698 | 6225 ft | 243 kts | 344° |
| 2026-04-29 22:35 | 35.44539 | 25.13084 | 6621 ft | 257 kts | 343° |
| 2026-04-29 22:35 | 35.46279 | 25.12379 | 7029 ft | 269 kts | 341° |
| 2026-04-29 22:35 | 35.48058 | 25.11599 | 7651 ft | 273 kts | 340° |
| 2026-04-29 22:36 | 35.49857 | 25.10788 | 8320 ft | 275 kts | 340° |
| 2026-04-29 22:36 | 35.51683 | 25.09960 | 8988 ft | 279 kts | 339° |
| 2026-04-29 22:36 | 35.53502 | 25.09139 | 9733 ft | 280 kts | 339° |
| 2026-04-29 22:36 | 35.55339 | 25.08313 | 10406 ft | 283 kts | 339° |
| 2026-04-29 22:37 | 35.57217 | 25.07469 | 10963 ft | 292 kts | 339° |
| 2026-04-29 22:37 | 35.59163 | 25.06595 | 11699 ft | 294 kts | 339° |
| 2026-04-29 22:37 | 35.61092 | 25.05730 | 12375 ft | 299 kts | 339° |
| 2026-04-29 22:37 | 35.63059 | 25.04848 | 13062 ft | 302 kts | 339° |
| 2026-04-29 22:38 | 35.65036 | 25.03961 | 13770 ft | 305 kts | 339° |
| 2026-04-29 22:38 | 35.67042 | 25.03061 | 14457 ft | 308 kts | 339° |
| 2026-04-29 22:38 | 35.69102 | 25.02136 | 15156 ft | 312 kts | 339° |
| 2026-04-29 22:38 | 35.71160 | 25.01213 | 15861 ft | 315 kts | 339° |
| 2026-04-29 22:39 | 35.73232 | 25.00268 | 16534 ft | 319 kts | 339° |
| 2026-04-29 22:39 | 35.75318 | 24.99291 | 17182 ft | 323 kts | 339° |
| 2026-04-29 22:39 | 35.77425 | 24.98295 | 17834 ft | 326 kts | 339° |
| 2026-04-29 22:39 | 35.79572 | 24.97278 | 18504 ft | 328 kts | 339° |
| 2026-04-29 22:40 | 35.81698 | 24.96274 | 19173 ft | 329 kts | 338° |
| 2026-04-29 22:40 | 35.83868 | 24.95251 | 19824 ft | 331 kts | 338° |
| 2026-04-29 22:40 | 35.86022 | 24.94237 | 20452 ft | 332 kts | 338° |
| 2026-04-29 22:40 | 35.88203 | 24.93210 | 21045 ft | 335 kts | 338° |
| 2026-04-29 22:41 | 35.90374 | 24.92186 | 21610 ft | 337 kts | 338° |
| 2026-04-29 22:41 | 35.92569 | 24.91151 | 22203 ft | 338 kts | 338° |
| 2026-04-29 22:41 | 35.94800 | 24.90099 | 22746 ft | 341 kts | 338° |
| 2026-04-29 22:41 | 35.97014 | 24.89053 | 23278 ft | 342 kts | 338° |
| 2026-04-29 22:42 | 35.99268 | 24.87988 | 23807 ft | 345 kts | 338° |
| 2026-04-29 22:42 | 36.01526 | 24.86920 | 24312 ft | 347 kts | 337° |
| 2026-04-29 22:42 | 36.03776 | 24.85855 | 24858 ft | 348 kts | 337° |
| 2026-04-29 22:42 | 36.06061 | 24.84773 | 25330 ft | 350 kts | 337° |
| 2026-04-29 22:43 | 36.08350 | 24.83689 | 25811 ft | 352 kts | 337° |
| 2026-04-29 22:43 | 36.10658 | 24.82596 | 26279 ft | 354 kts | 337° |
| 2026-04-29 22:43 | 36.12985 | 24.81494 | 26704 ft | 357 kts | 337° |
| 2026-04-29 22:43 | 36.15316 | 24.80388 | 27195 ft | 358 kts | 336° |
| 2026-04-29 22:44 | 36.17643 | 24.79285 | 27593 ft | 361 kts | 337° |
| 2026-04-29 22:44 | 36.20021 | 24.78156 | 28008 ft | 363 kts | 337° |
| 2026-04-29 22:44 | 36.22409 | 24.77021 | 28444 ft | 365 kts | 336° |
| 2026-04-29 22:44 | 36.24797 | 24.75886 | 28881 ft | 366 kts | 336° |
| 2026-04-29 22:45 | 36.27211 | 24.74739 | 29308 ft | 367 kts | 336° |
| 2026-04-29 22:45 | 36.29608 | 24.73598 | 29662 ft | 370 kts | 336° |
| 2026-04-29 22:45 | 36.32065 | 24.72428 | 30011 ft | 372 kts | 336° |
| 2026-04-29 22:46 | 36.36921 | 24.70112 | 30031 ft | 371 kts | 336° |
| 2026-04-29 22:46 | 36.41797 | 24.67785 | 30032 ft | 372 kts | 336° |
| 2026-04-29 22:47 | 36.46627 | 24.65474 | 30030 ft | 372 kts | 336° |
| 2026-04-29 22:47 | 36.51505 | 24.63140 | 30031 ft | 372 kts | 336° |
| 2026-04-29 22:48 | 36.56350 | 24.60817 | 30032 ft | 373 kts | 336° |
| 2026-04-29 22:48 | 36.61221 | 24.58478 | 30028 ft | 373 kts | 336° |
| 2026-04-29 22:49 | 36.66101 | 24.56132 | 30028 ft | 373 kts | 336° |
| 2026-04-29 22:49 | 36.70983 | 24.53782 | 30034 ft | 374 kts | 336° |
| 2026-04-29 22:50 | 36.75826 | 24.51392 | 30030 ft | 372 kts | 334° |
| 2026-04-29 22:50 | 36.80524 | 24.48572 | 30027 ft | 373 kts | 331° |
| 2026-04-29 22:51 | 36.85157 | 24.45631 | 30030 ft | 371 kts | 330° |
| 2026-04-29 22:51 | 36.92111 | 24.41263 | 30031 ft | 368 kts | 331° |
| 2026-04-29 22:52 | 36.96728 | 24.38390 | 30031 ft | 371 kts | 331° |
| 2026-04-29 22:52 | 37.01384 | 24.35498 | 30031 ft | 371 kts | 331° |
| 2026-04-29 22:53 | 37.06030 | 24.32611 | 30029 ft | 371 kts | 331° |
| 2026-04-29 22:53 | 37.10677 | 24.29720 | 30030 ft | 373 kts | 331° |
| 2026-04-29 22:54 | 37.15353 | 24.26807 | 30030 ft | 372 kts | 330° |
| 2026-04-29 22:54 | 37.20027 | 24.23892 | 30031 ft | 371 kts | 330° |
| 2026-04-29 22:55 | 37.24660 | 24.20997 | 30028 ft | 373 kts | 330° |
| 2026-04-29 22:55 | 37.29313 | 24.18088 | 30029 ft | 371 kts | 330° |
| 2026-04-29 22:56 | 37.33968 | 24.15172 | 30030 ft | 373 kts | 330° |
| 2026-04-29 22:56 | 37.38644 | 24.12238 | 30028 ft | 373 kts | 330° |
| 2026-04-29 22:57 | 37.43331 | 24.09293 | 30029 ft | 373 kts | 330° |
| 2026-04-29 22:57 | 37.47989 | 24.06364 | 30027 ft | 373 kts | 330° |
| 2026-04-29 22:58 | 37.52670 | 24.03416 | 30033 ft | 375 kts | 330° |
| 2026-04-29 22:58 | 37.57378 | 24.00446 | 30031 ft | 374 kts | 330° |
| 2026-04-29 22:59 | 37.62078 | 23.97476 | 30032 ft | 376 kts | 330° |
| 2026-04-29 22:59 | 37.66797 | 23.94491 | 30038 ft | 378 kts | 330° |
| 2026-04-29 23:00 | 37.71493 | 23.91516 | 30038 ft | 377 kts | 330° |
| 2026-04-29 23:00 | 37.76230 | 23.88510 | 30038 ft | 378 kts | 330° |
| 2026-04-29 23:01 | 37.80966 | 23.85502 | 30043 ft | 378 kts | 331° |
| 2026-04-29 23:01 | 37.85723 | 23.82502 | 30042 ft | 378 kts | 332° |
| 2026-04-29 23:02 | 37.90726 | 23.80228 | 30042 ft | 383 kts | 345° |
| 2026-04-29 23:02 | 37.96002 | 23.79220 | 30046 ft | 386 kts | 350° |
| 2026-04-29 23:03 | 38.01385 | 23.78523 | 30043 ft | 388 kts | 351° |
| 2026-04-29 23:03 | 38.06780 | 23.77819 | 30044 ft | 388 kts | 351° |
| 2026-04-29 23:04 | 38.12213 | 23.77071 | 30045 ft | 387 kts | 351° |
| 2026-04-29 23:04 | 38.17579 | 23.76308 | 30042 ft | 388 kts | 351° |
| 2026-04-29 23:05 | 38.22990 | 23.75530 | 30043 ft | 387 kts | 350° |
| 2026-04-29 23:05 | 38.28404 | 23.74748 | 30042 ft | 388 kts | 350° |
| 2026-04-29 23:06 | 38.33778 | 23.73970 | 30043 ft | 387 kts | 350° |
| 2026-04-29 23:06 | 38.39167 | 23.73187 | 30042 ft | 387 kts | 350° |
| 2026-04-29 23:07 | 38.44558 | 23.72405 | 30034 ft | 387 kts | 350° |
| 2026-04-29 23:07 | 38.49947 | 23.71621 | 30033 ft | 387 kts | 350° |
| 2026-04-29 23:08 | 38.55330 | 23.70835 | 30030 ft | 389 kts | 350° |
| 2026-04-29 23:08 | 38.60741 | 23.70047 | 30032 ft | 388 kts | 350° |
| 2026-04-29 23:09 | 38.66153 | 23.69256 | 30026 ft | 388 kts | 350° |
| 2026-04-29 23:09 | 38.71561 | 23.68466 | 30038 ft | 388 kts | 350° |
| 2026-04-29 23:10 | 38.76976 | 23.67671 | 30045 ft | 388 kts | 350° |
| 2026-04-29 23:10 | 38.82364 | 23.66879 | 30046 ft | 388 kts | 350° |
| 2026-04-29 23:11 | 38.87710 | 23.66095 | 30026 ft | 376 kts | 350° |
| 2026-04-29 23:11 | 38.90313 | 23.65716 | 29809 ft | 367 kts | 350° |
| 2026-04-29 23:11 | 38.92827 | 23.65348 | 29449 ft | 361 kts | 350° |
| 2026-04-29 23:12 | 38.95320 | 23.64954 | 29032 ft | 356 kts | 348° |
| 2026-04-29 23:12 | 38.97748 | 23.64419 | 28614 ft | 351 kts | 345° |
| 2026-04-29 23:12 | 39.00155 | 23.63790 | 28186 ft | 347 kts | 345° |
| 2026-04-29 23:12 | 39.02508 | 23.63143 | 27775 ft | 343 kts | 344° |
| 2026-04-29 23:13 | 39.04840 | 23.62506 | 27364 ft | 339 kts | 345° |
| 2026-04-29 23:13 | 39.07132 | 23.61891 | 26959 ft | 336 kts | 345° |
| 2026-04-29 23:13 | 39.09433 | 23.61284 | 26547 ft | 333 kts | 345° |
| 2026-04-29 23:13 | 39.11747 | 23.60679 | 26148 ft | 345 kts | 345° |
| 2026-04-29 23:14 | 39.14146 | 23.60051 | 25703 ft | 356 kts | 345° |
| 2026-04-29 23:14 | 39.16591 | 23.59419 | 25261 ft | 353 kts | 345° |
| 2026-04-29 23:14 | 39.18964 | 23.58813 | 24834 ft | 350 kts | 345° |
| 2026-04-29 23:14 | 39.21361 | 23.58200 | 24397 ft | 346 kts | 345° |
| 2026-04-29 23:15 | 39.23695 | 23.57604 | 23973 ft | 343 kts | 345° |
| 2026-04-29 23:15 | 39.26022 | 23.57009 | 23546 ft | 340 kts | 345° |
| 2026-04-29 23:15 | 39.28342 | 23.56397 | 23125 ft | 336 kts | 344° |
| 2026-04-29 23:15 | 39.30586 | 23.55612 | 22750 ft | 331 kts | 339° |
| 2026-04-29 23:16 | 39.32765 | 23.54643 | 22253 ft | 334 kts | 337° |
| 2026-04-29 23:16 | 39.34945 | 23.53582 | 21760 ft | 333 kts | 336° |
| 2026-04-29 23:16 | 39.37082 | 23.52517 | 21340 ft | 330 kts | 336° |
| 2026-04-29 23:16 | 39.39221 | 23.51452 | 20922 ft | 327 kts | 336° |
| 2026-04-29 23:17 | 39.41347 | 23.50402 | 20504 ft | 324 kts | 336° |
| 2026-04-29 23:17 | 39.43458 | 23.49368 | 20087 ft | 322 kts | 336° |
| 2026-04-29 23:17 | 39.45558 | 23.48346 | 19678 ft | 319 kts | 336° |
| 2026-04-29 23:17 | 39.47619 | 23.47346 | 19276 ft | 316 kts | 337° |
| 2026-04-29 23:18 | 39.49675 | 23.46349 | 18875 ft | 313 kts | 337° |
| 2026-04-29 23:18 | 39.51703 | 23.45365 | 18477 ft | 311 kts | 337° |
| 2026-04-29 23:18 | 39.53737 | 23.44377 | 18071 ft | 309 kts | 337° |
| 2026-04-29 23:18 | 39.55737 | 23.43407 | 17684 ft | 306 kts | 337° |
| 2026-04-29 23:19 | 39.57727 | 23.42440 | 17288 ft | 304 kts | 337° |
| 2026-04-29 23:19 | 39.59710 | 23.41476 | 16895 ft | 302 kts | 337° |
| 2026-04-29 23:19 | 39.61675 | 23.40521 | 16506 ft | 300 kts | 337° |
| 2026-04-29 23:19 | 39.63604 | 23.39583 | 16119 ft | 298 kts | 337° |
| 2026-04-29 23:20 | 39.65545 | 23.38638 | 15738 ft | 296 kts | 337° |
| 2026-04-29 23:20 | 39.67484 | 23.37694 | 15358 ft | 294 kts | 337° |
| 2026-04-29 23:20 | 39.69382 | 23.36770 | 14974 ft | 292 kts | 337° |
| 2026-04-29 23:20 | 39.71276 | 23.35846 | 14602 ft | 290 kts | 338° |
| 2026-04-29 23:21 | 39.73166 | 23.34924 | 14233 ft | 288 kts | 337° |
| 2026-04-29 23:21 | 39.75031 | 23.34013 | 13854 ft | 287 kts | 337° |
| 2026-04-29 23:21 | 39.76896 | 23.33102 | 13479 ft | 286 kts | 337° |
| 2026-04-29 23:21 | 39.78769 | 23.32186 | 13114 ft | 284 kts | 337° |
| 2026-04-29 23:22 | 39.80603 | 23.31288 | 12743 ft | 283 kts | 337° |
| 2026-04-29 23:22 | 39.82431 | 23.30392 | 12386 ft | 281 kts | 337° |
| 2026-04-29 23:22 | 39.84248 | 23.29501 | 12014 ft | 280 kts | 337° |
| 2026-04-29 23:22 | 39.86077 | 23.28604 | 11653 ft | 278 kts | 338° |
| 2026-04-29 23:23 | 39.87885 | 23.27716 | 11289 ft | 277 kts | 338° |
| 2026-04-29 23:23 | 39.89700 | 23.26825 | 10927 ft | 276 kts | 338° |
| 2026-04-29 23:23 | 39.91488 | 23.25948 | 10567 ft | 274 kts | 338° |
| 2026-04-29 23:23 | 39.93268 | 23.25072 | 10212 ft | 273 kts | 338° |
| 2026-04-29 23:24 | 39.95042 | 23.24200 | 9967 ft | 267 kts | 338° |
| 2026-04-29 23:24 | 39.96747 | 23.23361 | 9674 ft | 264 kts | 338° |
| 2026-04-29 23:24 | 39.98489 | 23.22504 | 9320 ft | 263 kts | 338° |
| 2026-04-29 23:24 | 40.00200 | 23.21662 | 8981 ft | 262 kts | 338° |
| 2026-04-29 23:25 | 40.01917 | 23.20817 | 8641 ft | 261 kts | 338° |
| 2026-04-29 23:25 | 40.03604 | 23.19986 | 8312 ft | 260 kts | 338° |
| 2026-04-29 23:25 | 40.05316 | 23.19142 | 7977 ft | 258 kts | 338° |
| 2026-04-29 23:25 | 40.06998 | 23.18313 | 7648 ft | 257 kts | 338° |
| 2026-04-29 23:26 | 40.08664 | 23.17489 | 7324 ft | 256 kts | 338° |
| 2026-04-29 23:26 | 40.10341 | 23.16660 | 6996 ft | 255 kts | 337° |
| 2026-04-29 23:26 | 40.11950 | 23.15661 | 6570 ft | 256 kts | 327° |
| 2026-04-29 23:26 | 40.13423 | 23.14336 | 6235 ft | 254 kts | 321° |
| 2026-04-29 23:27 | 40.14833 | 23.12926 | 5907 ft | 253 kts | 321° |
| 2026-04-29 23:27 | 40.16225 | 23.11543 | 5618 ft | 250 kts | 322° |
| 2026-04-29 23:27 | 40.17614 | 23.10202 | 5488 ft | 241 kts | 322° |
| 2026-04-29 23:27 | 40.18959 | 23.08922 | 5418 ft | 231 kts | 323° |
| 2026-04-29 23:28 | 40.20278 | 23.07673 | 5358 ft | 236 kts | 323° |
| 2026-04-29 23:28 | 40.21667 | 23.06619 | 5200 ft | 233 kts | 338° |
| 2026-04-29 23:28 | 40.23247 | 23.06032 | 4892 ft | 234 kts | 347° |
| 2026-04-29 23:28 | 40.24860 | 23.05618 | 4604 ft | 234 kts | 348° |
| 2026-04-29 23:29 | 40.26447 | 23.05182 | 4328 ft | 233 kts | 347° |
| 2026-04-29 23:29 | 40.27998 | 23.04711 | 4180 ft | 226 kts | 346° |
| 2026-04-29 23:29 | 40.29536 | 23.04223 | 4129 ft | 226 kts | 346° |
| 2026-04-29 23:29 | 40.31072 | 23.03733 | 4071 ft | 226 kts | 346° |
| 2026-04-29 23:30 | 40.32623 | 23.03241 | 4002 ft | 223 kts | 346° |
| 2026-04-29 23:30 | 40.34103 | 23.02771 | 3926 ft | 212 kts | 346° |
| 2026-04-29 23:30 | 40.35530 | 23.02319 | 3703 ft | 209 kts | 346° |
| 2026-04-29 23:30 | 40.36954 | 23.01867 | 3499 ft | 205 kts | 346° |
| 2026-04-29 23:31 | 40.38309 | 23.01437 | 3318 ft | 199 kts | 346° |
| 2026-04-29 23:31 | 40.39702 | 23.00994 | 2822 ft | 207 kts | 347° |
| 2026-04-29 23:31 | 40.41104 | 23.00550 | 2450 ft | 204 kts | 347° |
| 2026-04-29 23:31 | 40.42484 | 23.00111 | 2128 ft | 202 kts | 348° |
| 2026-04-29 23:32 | 40.43847 | 22.99679 | 1767 ft | 197 kts | 348° |
| 2026-04-29 23:32 | 40.45139 | 22.99268 | 1455 ft | 184 kts | 348° |
| 2026-04-29 23:32 | 40.46328 | 22.98888 | 1154 ft | 168 kts | 348° |
| 2026-04-29 23:32 | 40.47435 | 22.98535 | 867 ft | 156 kts | 348° |
| 2026-04-29 23:33 | 40.48481 | 22.98190 | 632 ft | 154 kts | 347° |
| 2026-04-29 23:33 | 40.49540 | 22.97858 | 394 ft | 154 kts | 348° |
| 2026-04-29 23:33 | 40.50590 | 22.97533 | 153 ft | 153 kts | 348° |
| 2026-04-29 23:33 | 40.51617 | 22.97203 | 9 ft | 141 kts | 348° |
| 2026-04-29 23:34 | 40.52329 | 22.96980 | 8 ft | 66 kts | 346° |
| 2026-04-29 23:34 | 40.52605 | 22.96891 | 8 ft | 19 kts | 346° |
| 2026-04-29 23:34 | 40.52680 | 22.96958 | 8 ft | 14 kts | 73° |
| 2026-04-29 23:34 | 40.52652 | 22.97059 | 8 ft | 13 kts | 161° |
| 2026-04-29 23:35 | 40.52568 | 22.97089 | 8 ft | 10 kts | 166° |
| 2026-04-29 23:35 | 40.52488 | 22.97111 | 8 ft | 14 kts | 167° |
| 2026-04-29 23:35 | 40.52391 | 22.97155 | 8 ft | 14 kts | 132° |
| 2026-04-29 23:35 | 40.52393 | 22.97275 | 8 ft | 12 kts | 76° |
| 2026-04-29 23:36 | 40.52438 | 22.97364 | 8 ft | 11 kts | 45° |
| 2026-04-29 23:36 | 40.52454 | 22.97386 | 8 ft | 0 kts | 45° |